Time;durP1;ratioP1;P1;durP2;ratioP2;P2;SDS_P1;SDS_P2;PMS_P1;PMS_P2;Temp;Humidity;BMP_temperature;BMP_pressure;BME280_temperature;BME280_humidity;BME280_pressure;Samples;Min_cycle;Max_cycle;Signal;HPM_P1;HPM_P2
2022/03/14 00:00:12;;;;;;;19.27;14.90;;;3.90;37.80;;;;;;6249714;28;20479;-63
2022/03/14 00:03:15;;;;;;;15.13;13.13;;;3.90;37.70;;;;;;6249902;28;20909;-62
2022/03/14 00:06:19;;;;;;;18.73;15.63;;;3.90;37.90;;;;;;6248747;28;20438;-63
2022/03/14 00:09:22;;;;;;;17.53;13.40;;;3.80;37.80;;;;;;6249774;28;20444;-63
2022/03/14 00:12:28;;;;;;;17.37;13.67;;;3.80;37.90;;;;;;6251948;28;20470;-64
2022/03/14 00:15:33;;;;;;;17.07;13.40;;;3.80;38.10;;;;;;6253813;28;20480;-62
2022/03/14 00:18:42;;;;;;;21.07;14.17;;;3.80;38.00;;;;;;6242065;28;20478;-63
2022/03/14 00:21:45;;;;;;;17.77;14.63;;;3.80;38.10;;;;;;6249903;28;20505;-63
2022/03/14 00:24:49;;;;;;;18.80;13.97;;;3.70;38.20;;;;;;6250022;28;20479;-62
2022/03/14 00:27:55;;;;;;;16.73;14.93;;;3.70;38.40;;;;;;6250330;28;20474;-62
2022/03/14 00:30:58;;;;;;;17.27;13.97;;;3.70;38.50;;;;;;6254368;28;20483;-63
2022/03/14 00:34:01;;;;;;;15.33;13.33;;;3.60;38.40;;;;;;6254609;28;20486;-62
2022/03/14 00:37:05;;;;;;;19.60;12.63;;;3.50;38.30;;;;;;6254493;28;20787;-61
2022/03/14 00:40:10;;;;;;;18.17;13.30;;;3.50;38.50;;;;;;6254126;28;20471;-63
2022/03/14 00:43:15;;;;;;;14.40;12.53;;;3.50;38.70;;;;;;6254248;28;20990;-61
2022/03/14 00:46:18;;;;;;;15.47;13.30;;;3.40;38.80;;;;;;6254301;28;20798;-64
2022/03/14 00:49:21;;;;;;;18.83;13.00;;;3.40;38.80;;;;;;6255160;28;20479;-65
2022/03/14 00:52:24;;;;;;;14.77;12.90;;;3.40;38.80;;;;;;6254730;28;20489;-65
2022/03/14 00:55:27;;;;;;;15.17;12.97;;;3.40;38.90;;;;;;6256592;28;20474;-64
2022/03/14 00:58:33;;;;;;;14.53;13.00;;;3.40;39.00;;;;;;6254474;28;20479;-64
2022/03/14 01:01:36;;;;;;;17.93;12.70;;;3.40;39.30;;;;;;6253958;28;20486;-64
2022/03/14 01:04:39;;;;;;;16.20;13.60;;;3.40;39.50;;;;;;6253793;28;20998;-63
2022/03/14 01:07:42;;;;;;;15.17;12.13;;;3.40;39.50;;;;;;6253945;28;20478;-63
2022/03/14 01:10:47;;;;;;;15.67;12.83;;;3.30;39.40;;;;;;6253419;28;20475;-63
2022/03/14 01:13:52;;;;;;;17.20;12.83;;;3.20;39.50;;;;;;6254096;28;20482;-62
2022/03/14 01:16:55;;;;;;;16.07;12.93;;;3.20;39.50;;;;;;6255858;28;20491;-64
2022/03/14 01:19:58;;;;;;;14.30;12.70;;;3.20;39.50;;;;;;6255349;28;20467;-63
2022/03/14 01:23:02;;;;;;;15.00;11.80;;;3.20;39.50;;;;;;6250925;28;20471;-65
2022/03/14 01:26:06;;;;;;;19.37;12.93;;;3.20;39.70;;;;;;6255699;28;20484;-64
2022/03/14 01:29:11;;;;;;;15.43;12.10;;;3.10;39.60;;;;;;6255387;28;20480;-64
2022/03/14 01:32:14;;;;;;;12.50;11.03;;;3.10;39.80;;;;;;6254548;28;20494;-63
2022/03/14 01:35:18;;;;;;;13.83;11.43;;;3.00;40.10;;;;;;6253117;28;20486;-62
2022/03/14 01:38:21;;;;;;;14.63;12.00;;;3.00;40.30;;;;;;6254124;28;20480;-64
2022/03/14 01:41:26;;;;;;;16.30;12.70;;;3.00;40.50;;;;;;6253783;28;20475;-64
2022/03/14 01:44:31;;;;;;;14.37;12.00;;;2.90;40.40;;;;;;6254670;28;20486;-65
2022/03/14 01:47:35;;;;;;;13.67;12.27;;;2.90;40.70;;;;;;6254827;28;20483;-64
2022/03/14 01:50:38;;;;;;;17.43;12.90;;;2.90;40.90;;;;;;6254317;28;20486;-64
2022/03/14 01:53:41;;;;;;;18.87;11.63;;;2.90;41.10;;;;;;6253736;28;20982;-64
2022/03/14 01:56:45;;;;;;;13.80;11.90;;;2.80;41.20;;;;;;6253469;28;20478;-64
2022/03/14 01:59:49;;;;;;;13.20;11.80;;;2.80;41.20;;;;;;6253131;28;20487;-64
2022/03/14 02:02:53;;;;;;;17.63;12.70;;;2.80;41.20;;;;;;6253799;28;20954;-64
2022/03/14 02:05:56;;;;;;;15.80;12.50;;;2.70;41.20;;;;;;6253672;28;20798;-64
2022/03/14 02:09:01;;;;;;;16.90;12.70;;;2.70;41.20;;;;;;6253827;28;20480;-64
2022/03/14 02:12:08;;;;;;;16.60;11.57;;;2.60;41.50;;;;;;6254147;28;20471;-64
2022/03/14 02:15:13;;;;;;;13.87;11.40;;;2.60;42.20;;;;;;6254010;28;20909;-64
2022/03/14 02:18:16;;;;;;;14.87;12.17;;;2.60;41.70;;;;;;6253722;28;20483;-63
2022/03/14 02:21:20;;;;;;;16.40;11.20;;;2.50;41.70;;;;;;6252128;28;20721;-63
2022/03/14 02:24:27;;;;;;;17.77;12.40;;;2.50;41.90;;;;;;6249255;28;20451;-63
2022/03/14 02:27:31;;;;;;;13.07;11.40;;;2.50;42.00;;;;;;6252861;28;20474;-63
2022/03/14 02:30:34;;;;;;;14.17;12.50;;;2.50;41.90;;;;;;6251660;28;20479;-62
2022/03/14 02:33:37;;;;;;;12.70;10.80;;;2.50;42.00;;;;;;6251738;28;20791;-62
2022/03/14 02:36:42;;;;;;;13.23;11.70;;;2.50;42.20;;;;;;6251695;28;20536;-62
2022/03/14 02:39:47;;;;;;;12.93;11.47;;;2.40;42.20;;;;;;6251599;28;20489;-63
2022/03/14 02:42:50;;;;;;;14.33;12.83;;;2.40;42.30;;;;;;6251901;28;20490;-64
2022/03/14 02:45:54;;;;;;;12.20;10.90;;;2.30;42.40;;;;;;6251866;28;20478;-64
2022/03/14 02:48:58;;;;;;;12.60;11.30;;;2.30;42.70;;;;;;6250969;28;20551;-64
2022/03/14 02:52:02;;;;;;;13.47;12.07;;;2.30;42.70;;;;;;6251234;28;20479;-63
2022/03/14 02:55:07;;;;;;;13.10;11.27;;;2.30;42.80;;;;;;6251498;28;20511;-63
2022/03/14 02:58:10;;;;;;;14.27;11.40;;;2.20;43.00;;;;;;6251359;28;20475;-63
2022/03/14 03:01:14;;;;;;;14.07;12.67;;;2.20;43.20;;;;;;6251648;28;20490;-63
2022/03/14 03:04:17;;;;;;;17.10;11.13;;;2.10;43.20;;;;;;6250764;28;20479;-63
2022/03/14 03:07:23;;;;;;;13.40;11.93;;;2.10;43.40;;;;;;6251114;28;20487;-63
2022/03/14 03:10:26;;;;;;;13.77;10.23;;;2.10;43.50;;;;;;6250966;28;20522;-63
2022/03/14 03:13:29;;;;;;;14.33;10.67;;;2.00;43.60;;;;;;6250881;28;20479;-63
2022/03/14 03:16:32;;;;;;;13.30;10.43;;;2.00;43.60;;;;;;6251327;28;20479;-63
2022/03/14 03:19:36;;;;;;;13.73;11.47;;;2.00;43.80;;;;;;6251358;28;20517;-64
2022/03/14 03:22:40;;;;;;;13.67;11.60;;;2.00;43.70;;;;;;6252297;28;20475;-63
2022/03/14 03:25:43;;;;;;;13.90;10.33;;;2.00;43.80;;;;;;6254313;28;20479;-63
2022/03/14 03:28:46;;;;;;;12.70;10.80;;;1.90;44.00;;;;;;6252425;28;20851;-62
2022/03/14 03:31:49;;;;;;;13.23;11.70;;;2.00;44.00;;;;;;6237205;28;20490;-62
2022/03/14 03:34:53;;;;;;;16.20;12.13;;;1.90;43.90;;;;;;6250240;28;20471;-63
2022/03/14 03:37:59;;;;;;;12.90;11.10;;;1.90;44.00;;;;;;6250655;28;20541;-63
2022/03/14 03:41:03;;;;;;;14.40;12.27;;;1.90;44.10;;;;;;6250755;28;20479;-62
2022/03/14 03:44:07;;;;;;;15.03;12.00;;;1.90;44.20;;;;;;6250976;28;20545;-62
2022/03/14 03:47:10;;;;;;;22.43;13.53;;;1.90;44.30;;;;;;6250461;28;20475;-62
2022/03/14 03:50:13;;;;;;;14.80;13.30;;;1.80;44.40;;;;;;6250568;28;20480;-63
2022/03/14 03:53:17;;;;;;;16.07;11.50;;;1.80;44.60;;;;;;6250278;28;20479;-62
2022/03/14 03:56:21;;;;;;;12.63;11.20;;;1.70;44.50;;;;;;6249991;28;20478;-61
2022/03/14 03:59:24;;;;;;;13.03;11.63;;;1.70;44.70;;;;;;6250144;28;20480;-62
2022/03/14 04:02:27;;;;;;;14.13;12.20;;;1.70;44.80;;;;;;6250592;28;20482;-62
2022/03/14 04:05:30;;;;;;;15.80;11.90;;;1.60;44.80;;;;;;6255180;28;20494;-62
2022/03/14 04:08:34;;;;;;;18.60;12.30;;;1.60;45.00;;;;;;6254602;28;20537;-62
2022/03/14 04:11:39;;;;;;;11.83;10.67;;;1.60;45.10;;;;;;6254949;28;20471;-62
2022/03/14 04:14:42;;;;;;;14.33;11.50;;;1.60;45.30;;;;;;6255134;28;20473;-62
2022/03/14 04:17:45;;;;;;;13.47;11.40;;;1.50;45.10;;;;;;6255048;28;20479;-62
2022/03/14 04:20:49;;;;;;;13.10;11.03;;;1.50;45.40;;;;;;6254660;28;20487;-62
2022/03/14 04:23:53;;;;;;;11.93;10.73;;;1.50;45.60;;;;;;6254848;28;20475;-62
2022/03/14 04:26:57;;;;;;;13.97;11.03;;;1.50;45.50;;;;;;6254447;28;20812;-63
2022/03/14 04:30:00;;;;;;;18.17;11.57;;;1.60;45.50;;;;;;6254225;28;20479;-64
2022/03/14 04:33:03;;;;;;;14.10;10.87;;;1.60;45.60;;;;;;6254507;28;20471;-64
2022/03/14 04:36:07;;;;;;;12.87;11.40;;;1.60;45.60;;;;;;6245166;28;20482;-63
2022/03/14 04:39:12;;;;;;;12.90;11.13;;;1.50;45.60;;;;;;6254039;28;20525;-63
2022/03/14 04:42:16;;;;;;;13.43;11.53;;;1.50;45.90;;;;;;6254434;28;20904;-63
2022/03/14 04:45:19;;;;;;;16.50;11.73;;;1.50;46.60;;;;;;6254337;28;20799;-63
2022/03/14 04:48:23;;;;;;;12.00;10.80;;;1.60;46.10;;;;;;6254164;28;20455;-63
2022/03/14 04:51:26;;;;;;;15.73;11.60;;;1.60;46.70;;;;;;6257562;28;20766;-63
2022/03/14 04:54:30;;;;;;;14.90;10.70;;;1.50;46.00;;;;;;6254338;28;20467;-63
2022/03/14 04:57:33;;;;;;;13.13;11.53;;;1.50;46.20;;;;;;6254544;28;20482;-63
2022/03/14 05:00:37;;;;;;;16.03;11.70;;;1.50;46.20;;;;;;6254069;28;21002;-62
2022/03/14 05:03:40;;;;;;;11.70;10.50;;;1.50;46.10;;;;;;6255002;28;20467;-62
2022/03/14 05:06:43;;;;;;;14.93;10.77;;;1.50;46.10;;;;;;6253932;28;20478;-62
2022/03/14 05:09:48;;;;;;;14.90;9.67;;;1.40;46.10;;;;;;6254206;28;20959;-62
2022/03/14 05:12:52;;;;;;;16.00;10.97;;;1.40;46.40;;;;;;6254356;28;20497;-62
2022/03/14 05:15:55;;;;;;;12.90;11.40;;;1.40;46.60;;;;;;6253526;28;20548;-63
2022/03/14 05:18:58;;;;;;;12.63;11.17;;;1.40;46.60;;;;;;6253527;28;20471;-63
2022/03/14 05:22:01;;;;;;;14.40;10.80;;;1.40;46.70;;;;;;6253930;28;20476;-63
2022/03/14 05:25:07;;;;;;;17.37;11.40;;;1.40;46.70;;;;;;6253849;28;20471;-63
2022/03/14 05:28:10;;;;;;;14.13;12.10;;;1.50;46.80;;;;;;6253527;28;20478;-62
2022/03/14 05:31:13;;;;;;;11.80;10.43;;;1.50;46.80;;;;;;6253525;28;20474;-62
2022/03/14 05:34:16;;;;;;;14.97;10.90;;;1.50;46.60;;;;;;6253322;28;20548;-62
2022/03/14 05:37:19;;;;;;;15.17;13.10;;;1.50;46.70;;;;;;6253159;28;20492;-62
2022/03/14 05:40:24;;;;;;;11.47;10.30;;;1.50;46.70;;;;;;6253106;28;20479;-62
2022/03/14 05:43:27;;;;;;;17.00;11.23;;;1.60;46.80;;;;;;6253249;28;20471;-62
2022/03/14 05:46:30;;;;;;;13.40;12.10;;;1.60;46.80;;;;;;6252820;28;20479;-62
2022/03/14 05:49:33;;;;;;;16.07;11.83;;;1.50;46.70;;;;;;6252788;28;20534;-62
2022/03/14 05:52:36;;;;;;;18.83;12.43;;;1.60;46.80;;;;;;6252842;28;20478;-62
2022/03/14 05:55:41;;;;;;;17.03;13.47;;;1.60;46.80;;;;;;6252867;28;20471;-62
2022/03/14 05:58:44;;;;;;;21.57;11.93;;;1.60;46.90;;;;;;6251803;28;20935;-62
2022/03/14 06:01:50;;;;;;;14.70;11.40;;;1.50;46.90;;;;;;6252546;28;20808;-62
2022/03/14 06:04:54;;;;;;;16.53;12.10;;;1.50;46.90;;;;;;6252473;28;20476;-62
2022/03/14 06:07:57;;;;;;;19.37;13.90;;;1.60;47.00;;;;;;6252245;28;20467;-62
2022/03/14 06:11:05;;;;;;;16.50;13.23;;;1.60;47.00;;;;;;6251173;28;20860;-62
2022/03/14 06:14:08;;;;;;;17.47;14.10;;;1.70;47.00;;;;;;6251089;28;20475;-62
2022/03/14 06:17:13;;;;;;;21.47;14.97;;;1.70;46.90;;;;;;6252178;28;20547;-63
2022/03/14 06:20:16;;;;;;;18.93;15.53;;;1.80;47.00;;;;;;6251819;28;20839;-62
2022/03/14 06:23:19;;;;;;;21.70;15.17;;;1.80;47.10;;;;;;6251620;28;20490;-62
2022/03/14 06:26:23;;;;;;;17.63;15.43;;;1.90;47.60;;;;;;6251668;28;20765;-62
2022/03/14 06:29:27;;;;;;;16.63;14.33;;;2.00;47.00;;;;;;6251963;28;20479;-62
2022/03/14 06:32:35;;;;;;;15.63;12.17;;;2.10;47.50;;;;;;6251986;28;20525;-63
2022/03/14 06:35:40;;;;;;;15.20;11.47;;;2.20;46.80;;;;;;6250536;28;20479;-62
2022/03/14 06:38:43;;;;;;;19.17;13.53;;;2.30;46.40;;;;;;6252341;28;20537;-62
2022/03/14 06:41:48;;;;;;;16.27;12.63;;;2.40;46.30;;;;;;6252610;28;20562;-62
2022/03/14 06:44:51;;;;;;;14.20;12.67;;;2.50;46.20;;;;;;6236445;28;20489;-62
2022/03/14 06:47:56;;;;;;;15.50;12.83;;;2.50;46.10;;;;;;6250213;28;20486;-62
2022/03/14 06:50:59;;;;;;;13.20;11.63;;;2.60;46.20;;;;;;6251382;28;20463;-62
2022/03/14 06:54:02;;;;;;;12.73;11.43;;;2.60;46.20;;;;;;6254596;28;20482;-62
2022/03/14 06:57:07;;;;;;;13.63;12.23;;;2.70;46.00;;;;;;6251721;28;20482;-62
2022/03/14 07:00:11;;;;;;;24.50;12.87;;;2.70;46.00;;;;;;6251488;28;20915;-62
2022/03/14 07:03:14;;;;;;;19.00;13.00;;;2.90;45.70;;;;;;6251972;28;20444;-63
2022/03/14 07:06:18;;;;;;;16.43;13.43;;;3.00;45.70;;;;;;6251310;28;20474;-62
2022/03/14 07:09:21;;;;;;;12.93;11.50;;;3.20;46.10;;;;;;6250728;28;20460;-62
2022/03/14 07:12:25;;;;;;;15.90;11.30;;;3.40;45.30;;;;;;6251342;28;20443;-62
2022/03/14 07:15:28;;;;;;;17.20;11.90;;;3.70;45.00;;;;;;6251142;28;20472;-62
2022/03/14 07:18:32;;;;;;;15.10;13.40;;;4.00;44.70;;;;;;6251059;28;20475;-62
2022/03/14 07:21:35;;;;;;;15.70;13.10;;;4.30;44.30;;;;;;6252036;28;20970;-62
2022/03/14 07:24:38;;;;;;;13.60;12.20;;;4.80;43.60;;;;;;6251814;28;20471;-62
2022/03/14 07:27:42;;;;;;;13.03;11.47;;;6.50;42.30;;;;;;6251728;28;20471;-62
2022/03/14 07:30:46;;;;;;;18.17;12.70;;;9.60;37.50;;;;;;6251236;28;20466;-62
2022/03/14 07:33:49;;;;;;;16.47;12.33;;;12.80;32.50;;;;;;6251849;28;20567;-63
2022/03/14 07:36:53;;;;;;;13.10;11.80;;;15.30;28.70;;;;;;6251790;28;20825;-63
2022/03/14 07:39:56;;;;;;;13.57;12.10;;;17.60;25.80;;;;;;6250970;28;20579;-63
2022/03/14 07:43:01;;;;;;;12.77;11.57;;;19.20;23.70;;;;;;6252022;28;20467;-63
2022/03/14 07:46:05;;;;;;;13.03;11.70;;;19.20;22.70;;;;;;6242708;28;20473;-62
2022/03/14 07:49:09;;;;;;;14.20;12.87;;;17.20;22.90;;;;;;6252349;28;21033;-62
2022/03/14 07:52:12;;;;;;;14.23;12.27;;;15.70;24.10;;;;;;6252807;28;20464;-62
2022/03/14 07:55:15;;;;;;;12.47;11.17;;;15.30;24.90;;;;;;6252093;28;20476;-62
2022/03/14 07:58:20;;;;;;;13.83;12.33;;;17.00;24.70;;;;;;6251659;28;20539;-63
2022/03/14 08:01:23;;;;;;;12.53;11.37;;;19.50;23.20;;;;;;6252975;28;20475;-63
2022/03/14 08:04:27;;;;;;;14.17;12.60;;;21.40;21.40;;;;;;6256327;28;20228;-62
2022/03/14 08:07:30;;;;;;;15.97;14.07;;;23.30;20.60;;;;;;6251765;28;20247;-62
2022/03/14 08:10:36;;;;;;;15.83;14.37;;;25.20;19.50;;;;;;6250371;28;20290;-62
2022/03/14 08:13:40;;;;;;;15.63;14.07;;;26.80;18.40;;;;;;6250767;28;20224;-62
2022/03/14 08:16:49;;;;;;;15.90;14.37;;;28.30;16.90;;;;;;6250233;28;20695;-64
2022/03/14 08:19:52;;;;;;;15.67;14.00;;;28.80;16.10;;;;;;6249939;28;20231;-63
2022/03/14 08:22:57;;;;;;;16.07;14.47;;;29.40;15.40;;;;;;6249769;28;20241;-63
2022/03/14 08:26:00;;;;;;;14.47;13.07;;;30.20;15.00;;;;;;6249665;28;20227;-63
2022/03/14 08:29:05;;;;;;;14.37;13.17;;;31.00;14.30;;;;;;6248013;28;20232;-62
2022/03/14 08:32:09;;;;;;;14.43;13.23;;;31.00;13.80;;;;;;6249184;28;20228;-62
2022/03/14 08:35:13;;;;;;;14.15;13.02;;;31.90;13.90;;;;;;6249893;28;20228;-62
2022/03/14 08:38:17;;;;;;;15.48;13.98;;;32.50;13.30;;;;;;6252944;28;20224;-64
2022/03/14 08:41:20;;;;;;;13.75;12.65;;;31.90;13.20;;;;;;6250296;28;20239;-64
2022/03/14 08:44:25;;;;;;;15.45;13.98;;;32.80;12.90;;;;;;6250358;28;20236;-66
2022/03/14 08:47:28;;;;;;;15.35;14.00;;;33.40;12.60;;;;;;6250051;28;20593;-66
2022/03/14 08:50:32;;;;;;;16.75;13.73;;;34.30;12.40;;;;;;6249476;28;20597;-63
2022/03/14 08:53:36;;;;;;;15.50;14.15;;;34.60;11.80;;;;;;6253708;28;20243;-63
2022/03/14 08:56:39;;;;;;;15.00;13.80;;;35.20;11.60;;;;;;6254500;28;20242;-65
2022/03/14 08:59:44;;;;;;;16.55;15.23;;;35.50;11.30;;;;;;6253925;28;20293;-63
2022/03/14 09:02:47;;;;;;;15.45;14.25;;;35.90;11.30;;;;;;6254554;28;20235;-63
2022/03/14 09:05:50;;;;;;;17.02;15.55;;;36.50;10.90;;;;;;6254545;28;20625;-63
2022/03/14 09:08:54;;;;;;;15.10;14.00;;;36.10;11.00;;;;;;6254658;28;20240;-64
2022/03/14 09:11:58;;;;;;;17.25;15.95;;;36.10;10.80;;;;;;6254307;28;20243;-64
2022/03/14 09:15:03;;;;;;;17.40;15.93;;;35.90;10.80;;;;;;6253578;28;20720;-66
2022/03/14 09:18:07;;;;;;;16.23;14.82;;;36.70;10.90;;;;;;6253438;28;20248;-66
2022/03/14 09:21:14;;;;;;;17.95;16.45;;;37.20;10.50;;;;;;6253387;28;20238;-67
2022/03/14 09:24:17;;;;;;;16.45;15.13;;;37.40;10.30;;;;;;6253553;28;20627;-63
2022/03/14 09:27:20;;;;;;;16.48;15.15;;;37.40;10.20;;;;;;6254101;28;20223;-64
2022/03/14 09:30:25;;;;;;;17.25;15.75;;;37.30;10.30;;;;;;6254531;28;20232;-63
2022/03/14 09:33:28;;;;;;;18.25;15.60;;;38.00;10.20;;;;;;6253750;28;20242;-64
2022/03/14 09:36:31;;;;;;;17.70;16.38;;;38.10;9.90;;;;;;6252727;28;20663;-64
2022/03/14 09:39:35;;;;;;;16.48;15.27;;;38.70;9.80;;;;;;6252894;28;20557;-64
2022/03/14 09:42:40;;;;;;;15.85;14.52;;;38.70;9.60;;;;;;6252876;28;20540;-64
2022/03/14 09:45:48;;;;;;;17.33;15.68;;;38.50;9.80;;;;;;6253259;28;20231;-64
2022/03/14 09:48:54;;;;;;;17.30;15.80;;;38.70;9.70;;;;;;6254442;28;20231;-64
2022/03/14 09:51:59;;;;;;;16.65;15.43;;;37.90;9.70;;;;;;6245108;28;20246;-64
2022/03/14 09:55:02;;;;;;;16.17;14.93;;;38.10;9.80;;;;;;6254469;28;20236;-67
2022/03/14 09:58:05;;;;;;;15.77;14.68;;;39.20;9.40;;;;;;6253987;28;20247;-65
2022/03/14 10:01:10;;;;;;;17.63;16.13;;;40.10;9.20;;;;;;6252810;28;20691;-66
2022/03/14 10:04:13;;;;;;;16.35;15.02;;;39.90;9.10;;;;;;6253075;28;20246;-66
2022/03/14 10:07:17;;;;;;;16.52;15.23;;;39.90;9.10;;;;;;6253341;28;20625;-63
2022/03/14 10:10:20;;;;;;;18.08;16.63;;;41.10;8.90;;;;;;6251987;28;20272;-64
2022/03/14 10:13:23;;;;;;;17.02;15.73;;;41.50;8.70;;;;;;6252213;28;20224;-64
2022/03/14 10:16:28;;;;;;;17.45;16.15;;;42.20;8.40;;;;;;6251762;28;20627;-67
2022/03/14 10:19:34;;;;;;;17.90;16.25;;;40.70;8.50;;;;;;6252028;28;20231;-67
2022/03/14 10:22:39;;;;;;;16.75;15.57;;;40.90;8.70;;;;;;6252245;28;20227;-63
2022/03/14 10:25:43;;;;;;;19.05;17.50;;;41.30;8.50;;;;;;6251727;28;20251;-64
2022/03/14 10:42:32;;;;;;;21.67;17.20;;;42.10;8.10;;;;;;6104220;29;20302;-63
2022/03/14 10:53:21;;;;;;;16.10;14.77;;;41.90;8.40;;;;;;6225666;28;20645;-61
2022/03/14 10:56:28;;;;;;;17.55;16.35;;;42.40;8.00;;;;;;6226165;28;20239;-61
2022/03/14 10:59:36;;;;;;;16.88;15.57;;;43.30;7.80;;;;;;6226031;28;20245;-60
2022/03/14 11:02:39;;;;;;;18.30;16.90;;;42.60;7.70;;;;;;6226357;28;20237;-60
2022/03/14 11:05:45;;;;;;;17.08;15.77;;;42.60;7.90;;;;;;6225915;28;20347;-60
2022/03/14 11:08:51;;;;;;;17.48;16.35;;;42.90;7.80;;;;;;6225159;28;20240;-60
2022/03/14 11:12:07;;;;;;;17.48;16.17;;;42.50;7.90;;;;;;6225755;28;20224;-60
2022/03/14 11:15:12;;;;;;;18.90;17.55;;;43.30;7.80;;;;;;6225798;28;20231;-60
2022/03/14 11:18:17;;;;;;;17.40;15.95;;;43.10;7.70;;;;;;6225934;28;20199;-63
2022/03/14 11:21:24;;;;;;;18.40;17.00;;;42.40;7.70;;;;;;6226403;28;20216;-63
2022/03/14 11:24:29;;;;;;;18.08;16.88;;;41.70;8.10;;;;;;6226804;28;20231;-63
2022/03/14 11:27:36;;;;;;;17.55;16.13;;;40.70;8.20;;;;;;6227455;28;20224;-64
2022/03/14 11:30:40;;;;;;;18.55;17.15;;;40.60;8.40;;;;;;6228692;28;20661;-64
2022/03/14 11:33:47;;;;;;;19.00;17.70;;;39.70;8.50;;;;;;6228074;28;20224;-63
2022/03/14 11:36:51;;;;;;;18.20;16.80;;;39.40;8.70;;;;;;6226129;28;20255;-64
2022/03/14 11:39:57;;;;;;;18.13;16.83;;;38.90;8.80;;;;;;6226507;28;20247;-64
2022/03/14 11:43:01;;;;;;;18.73;17.33;;;38.40;9.00;;;;;;6225347;28;20232;-65
2022/03/14 11:46:04;;;;;;;17.90;16.65;;;39.30;9.10;;;;;;6225722;28;20236;-64
2022/03/14 11:49:14;;;;;;;20.15;18.55;;;40.20;8.60;;;;;;6225561;28;20302;-64
2022/03/14 11:52:19;;;;;;;17.98;16.63;;;38.70;8.80;;;;;;6224905;28;20232;-66
2022/03/14 11:55:27;;;;;;;20.20;18.60;;;38.90;9.10;;;;;;6225625;28;20703;-63
2022/03/14 11:58:38;;;;;;;18.30;16.95;;;38.20;9.00;;;;;;6225242;28;20244;-63
2022/03/14 12:01:48;;;;;;;19.58;18.08;;;38.30;9.30;;;;;;6216028;28;20233;-61
2022/03/14 12:05:01;;;;;;;19.15;17.40;;;39.00;9.00;;;;;;6225361;28;20259;-61
2022/03/14 12:08:10;;;;;;;19.13;17.65;;;39.70;8.80;;;;;;6225143;28;20316;-62
2022/03/14 12:11:42;;;;;;;18.10;16.70;;;38.50;9.00;;;;;;6200347;28;20583;-62
2022/03/14 12:14:47;;;;;;;17.48;16.15;;;38.80;8.80;;;;;;6200121;28;20300;-61
2022/03/14 12:17:50;;;;;;;17.58;16.33;;;36.90;9.30;;;;;;6198932;28;20379;-61
2022/03/14 12:20:55;;;;;;;18.88;17.48;;;36.30;9.90;;;;;;6198989;28;20241;-61
2022/03/14 12:23:58;;;;;;;19.42;17.73;;;37.00;9.60;;;;;;6200173;28;20237;-61
2022/03/14 12:27:07;;;;;;;18.92;17.23;;;38.20;8.90;;;;;;6203941;28;20574;-61
2022/03/14 12:30:33;;;;;;;17.88;16.38;;;38.00;9.00;;;;;;6203702;28;20248;-61
2022/03/14 12:33:38;;;;;;;18.83;17.33;;;39.20;8.60;;;;;;6204752;28;20291;-60
2022/03/14 12:36:42;;;;;;;18.33;16.92;;;37.00;9.30;;;;;;6220293;28;20676;-61
2022/03/14 12:39:45;;;;;;;19.48;17.90;;;37.20;9.20;;;;;;6230744;28;20243;-63
2022/03/14 12:42:51;;;;;;;20.20;18.58;;;37.90;9.70;;;;;;6230055;28;20652;-63
2022/03/14 12:45:57;;;;;;;18.58;17.27;;;38.50;8.80;;;;;;6229648;28;20232;-62
2022/03/14 12:49:00;;;;;;;18.67;17.10;;;37.90;9.00;;;;;;6231473;28;20233;-62
2022/03/14 12:52:11;;;;;;;18.13;16.75;;;38.20;9.60;;;;;;6230670;28;20676;-65
2022/03/14 12:55:19;;;;;;;17.95;16.55;;;38.30;8.90;;;;;;6224186;28;20233;-62
2022/03/14 12:58:26;;;;;;;20.50;18.88;;;36.90;9.10;;;;;;6205845;28;20233;-62
2022/03/14 13:01:31;;;;;;;18.98;17.48;;;35.20;9.60;;;;;;6214679;28;20552;-62
2022/03/14 13:04:34;;;;;;;19.50;17.95;;;34.10;10.10;;;;;;6224735;28;20318;-62
2022/03/14 13:07:37;;;;;;;17.83;16.42;;;32.90;10.50;;;;;;6229101;28;20228;-61
2022/03/14 13:10:41;;;;;;;20.60;17.20;;;32.10;10.90;;;;;;6229031;28;20240;-62
2022/03/14 13:13:46;;;;;;;18.23;16.50;;;31.00;11.70;;;;;;6228248;28;20228;-63
2022/03/14 13:16:54;;;;;;;19.23;17.60;;;31.00;11.70;;;;;;6229853;28;20235;-62
2022/03/14 13:19:57;;;;;;;19.40;17.73;;;30.70;11.70;;;;;;6228836;28;20237;-62
2022/03/14 13:23:15;;;;;;;18.80;17.10;;;31.40;11.80;;;;;;6229471;28;20240;-61
2022/03/14 13:26:20;;;;;;;19.42;17.13;;;32.60;11.30;;;;;;6228716;28;20677;-63
2022/03/14 13:29:33;;;;;;;17.85;16.45;;;33.90;10.80;;;;;;6230424;28;20244;-64
2022/03/14 13:32:36;;;;;;;17.45;16.02;;;32.30;11.00;;;;;;6229653;28;20229;-64
2022/03/14 13:35:44;;;;;;;19.00;17.50;;;32.30;11.30;;;;;;6223634;28;20233;-64
2022/03/14 13:38:49;;;;;;;17.67;16.30;;;32.90;11.10;;;;;;6229425;28;20693;-63
2022/03/14 13:41:57;;;;;;;18.52;17.02;;;32.00;11.20;;;;;;6230478;28;20232;-63
2022/03/14 13:45:02;;;;;;;18.40;16.97;;;30.70;11.90;;;;;;6232334;28;20243;-63
2022/03/14 13:48:05;;;;;;;18.40;16.83;;;29.20;12.70;;;;;;6232411;28;20299;-63
2022/03/14 13:51:10;;;;;;;19.03;17.50;;;27.00;13.70;;;;;;6231957;28;20259;-63
2022/03/14 13:54:15;;;;;;;19.40;17.80;;;25.80;14.50;;;;;;6228973;28;20625;-62
2022/03/14 13:57:22;;;;;;;17.70;16.20;;;24.20;15.50;;;;;;6229290;28;20201;-63
2022/03/14 14:00:28;;;;;;;17.07;15.50;;;22.60;16.50;;;;;;6228550;28;20303;-61
2022/03/14 14:03:32;;;;;;;16.67;15.13;;;21.80;17.00;;;;;;6228464;28;20714;-62
2022/03/14 14:06:44;;;;;;;16.00;14.70;;;21.20;17.30;;;;;;6224472;28;20228;-63
2022/03/14 14:09:48;;;;;;;14.43;13.13;;;20.60;18.50;;;;;;6228619;28;20233;-62
2022/03/14 14:13:01;;;;;;;15.53;14.17;;;19.40;19.50;;;;;;6228670;28;20248;-62
2022/03/14 14:16:16;;;;;;;14.27;12.87;;;18.30;20.30;;;;;;6228731;28;20237;-62
2022/03/14 14:19:22;;;;;;;13.97;12.67;;;17.60;21.00;;;;;;6228310;28;20700;-62
2022/03/14 14:22:30;;;;;;;16.07;14.27;;;17.20;21.50;;;;;;6228230;28;20233;-61
2022/03/14 14:25:35;;;;;;;14.93;13.43;;;17.00;22.10;;;;;;6227969;28;20483;-61
2022/03/14 14:28:39;;;;;;;13.70;12.30;;;16.80;21.90;;;;;;6227157;28;20476;-63
2022/03/14 14:31:46;;;;;;;15.07;13.47;;;16.60;22.30;;;;;;6227145;28;20477;-63
2022/03/14 14:34:49;;;;;;;15.10;13.50;;;16.70;22.30;;;;;;6226701;28;20472;-62
2022/03/14 14:37:52;;;;;;;14.63;13.23;;;16.50;22.50;;;;;;6207895;28;20473;-62
2022/03/14 14:40:57;;;;;;;13.20;11.93;;;16.30;22.70;;;;;;6203135;28;20816;-61
2022/03/14 14:44:00;;;;;;;14.50;13.00;;;16.30;23.00;;;;;;6202087;28;20823;-62
2022/03/14 14:47:07;;;;;;;11.83;10.63;;;16.40;23.00;;;;;;6202076;28;20480;-63
2022/03/14 14:50:11;;;;;;;14.47;13.20;;;16.50;23.00;;;;;;6202920;28;20504;-64
2022/03/14 14:53:15;;;;;;;14.23;12.70;;;16.20;23.10;;;;;;6201758;28;20492;-62
2022/03/14 14:56:18;;;;;;;13.73;12.43;;;16.10;23.30;;;;;;6201764;28;20956;-63
2022/03/14 14:59:24;;;;;;;12.10;10.90;;;16.10;23.20;;;;;;6221969;28;20538;-62
2022/03/14 15:02:29;;;;;;;16.03;12.73;;;16.00;23.50;;;;;;6236502;28;20903;-62
2022/03/14 15:05:33;;;;;;;12.80;11.57;;;15.80;23.70;;;;;;6233232;28;20487;-63
2022/03/14 15:08:36;;;;;;;12.80;11.70;;;15.60;23.80;;;;;;6234523;28;20476;-63
2022/03/14 15:11:40;;;;;;;17.00;12.80;;;15.40;23.80;;;;;;6231318;28;20464;-64
2022/03/14 15:14:43;;;;;;;14.27;12.50;;;15.30;23.90;;;;;;6245721;28;20478;-63
2022/03/14 15:17:48;;;;;;;12.27;11.07;;;15.20;24.20;;;;;;6235328;28;20487;-64
2022/03/14 15:20:51;;;;;;;12.13;11.03;;;15.00;24.10;;;;;;6232560;28;20476;-63
2022/03/14 15:23:55;;;;;;;11.53;10.63;;;14.90;24.00;;;;;;6235069;28;20956;-64
2022/03/14 15:26:58;;;;;;;10.70;9.70;;;15.00;24.10;;;;;;6235138;28;20483;-63
2022/03/14 15:30:04;;;;;;;11.90;10.77;;;15.10;24.10;;;;;;6246802;28;20486;-63
2022/03/14 15:33:08;;;;;;;10.80;9.70;;;15.10;23.90;;;;;;6233852;28;21006;-62
2022/03/14 15:36:12;;;;;;;10.93;10.00;;;15.10;23.80;;;;;;6219725;28;20522;-63
2022/03/14 15:39:15;;;;;;;11.63;10.50;;;15.00;23.80;;;;;;6225752;28;20469;-63
2022/03/14 15:42:18;;;;;;;11.43;10.43;;;15.10;23.70;;;;;;6225222;28;20448;-63
2022/03/14 15:45:23;;;;;;;11.63;10.37;;;15.10;23.70;;;;;;6225467;28;20480;-63
2022/03/14 15:48:28;;;;;;;12.60;10.70;;;14.90;23.80;;;;;;6226208;28;20436;-63
2022/03/14 15:51:31;;;;;;;11.87;10.67;;;15.00;23.80;;;;;;6226992;28;20479;-63
2022/03/14 15:54:35;;;;;;;11.77;10.50;;;14.90;23.80;;;;;;6225925;28;20468;-63
2022/03/14 15:57:38;;;;;;;11.13;10.13;;;14.90;23.90;;;;;;6225695;28;20468;-63
2022/03/14 16:00:42;;;;;;;11.37;10.17;;;14.80;24.00;;;;;;6224325;28;21150;-62
2022/03/14 16:03:49;;;;;;;11.20;10.10;;;14.70;23.90;;;;;;6225501;28;20487;-63